createdAt,value
2017-06-26T00:00:13.100Z,6.83
2017-06-26T00:02:39.752Z,2.80
2017-06-26T00:05:06.390Z,4.53
2017-06-26T00:07:33.045Z,5.53
2017-06-26T00:09:59.672Z,4.13
2017-06-26T00:12:26.290Z,3.70
2017-06-26T00:14:52.939Z,4.30
2017-06-26T00:17:19.587Z,6.50
2017-06-26T00:19:46.216Z,3.87
2017-06-26T00:22:12.858Z,10.03
2017-06-26T00:24:39.814Z,4.70
2017-06-26T00:27:06.459Z,3.90
2017-06-26T00:29:33.082Z,5.83
2017-06-26T00:31:59.714Z,8.53
2017-06-26T00:34:26.364Z,5.40
2017-06-26T00:36:52.985Z,4.37
2017-06-26T00:39:19.628Z,11.23
2017-06-26T00:41:46.270Z,12.93
2017-06-26T00:44:12.890Z,4.60
2017-06-26T00:46:39.553Z,5.23
2017-06-26T00:49:06.174Z,5.33
2017-06-26T00:51:32.822Z,7.93
2017-06-26T00:53:59.451Z,7.63
2017-06-26T00:56:26.067Z,4.80
2017-06-26T00:58:52.691Z,9.43
2017-06-26T01:01:19.299Z,4.47
2017-06-26T01:03:45.948Z,8.30
2017-06-26T01:06:12.575Z,7.37
2017-06-26T01:08:39.210Z,3.90
2017-06-26T01:11:05.852Z,8.63
2017-06-26T01:13:32.467Z,6.50
2017-06-26T01:15:59.192Z,7.77
2017-06-26T01:18:25.834Z,11.13
2017-06-26T01:20:52.476Z,7.63
2017-06-26T01:23:19.113Z,5.10
2017-06-26T01:25:45.754Z,7.33
2017-06-26T01:28:12.370Z,5.77
2017-06-26T01:30:38.996Z,4.97
2017-06-26T01:33:05.633Z,8.10
2017-06-26T01:35:32.250Z,8.00
2017-06-26T01:37:58.880Z,5.67
2017-06-26T01:40:25.496Z,7.00
2017-06-26T01:42:52.130Z,3.90
2017-06-26T01:45:18.760Z,5.30
2017-06-26T01:47:45.386Z,7.33
2017-06-26T01:50:12.034Z,8.70
2017-06-26T01:52:38.647Z,5.77
2017-06-26T01:55:05.288Z,6.63
2017-06-26T01:57:31.904Z,5.77
2017-06-26T01:59:58.539Z,5.17
2017-06-26T02:02:25.172Z,6.73
2017-06-26T02:04:51.808Z,6.67
2017-06-26T02:07:18.447Z,9.33
2017-06-26T02:09:45.060Z,7.90
2017-06-26T02:12:11.716Z,4.53
2017-06-26T02:14:38.346Z,5.60
2017-06-26T02:17:04.988Z,5.57
2017-06-26T02:19:31.605Z,7.30
2017-06-26T02:21:58.246Z,7.90
2017-06-26T02:24:24.884Z,9.57
2017-06-26T02:26:51.502Z,7.63
2017-06-26T02:29:18.144Z,3.50
2017-06-26T02:31:44.771Z,6.47
2017-06-26T02:34:11.401Z,7.20
2017-06-26T02:36:38.038Z,10.17
2017-06-26T02:39:04.666Z,8.30
2017-06-26T02:41:31.294Z,8.80
2017-06-26T02:43:57.912Z,7.40
2017-06-26T02:46:24.533Z,13.47
2017-06-26T02:48:51.192Z,7.03
2017-06-26T02:51:17.805Z,4.73
2017-06-26T02:53:44.569Z,14.30
2017-06-26T02:56:11.212Z,7.57
2017-06-26T02:58:37.839Z,13.07
2017-06-26T03:01:04.451Z,10.10
2017-06-26T03:03:31.099Z,7.87
2017-06-26T03:05:57.758Z,7.40
2017-06-26T03:08:24.408Z,8.87
2017-06-26T03:10:51.022Z,7.10
2017-06-26T03:13:17.697Z,11.50
2017-06-26T03:15:44.331Z,6.20
2017-06-26T03:18:10.954Z,13.53
2017-06-26T03:20:37.590Z,11.67
2017-06-26T03:23:04.690Z,10.67
2017-06-26T03:25:31.319Z,13.10
2017-06-26T03:27:57.964Z,11.40
2017-06-26T03:30:24.587Z,9.27
2017-06-26T03:32:51.230Z,16.90
2017-06-26T03:35:17.847Z,11.50
2017-06-26T03:37:44.489Z,13.77
2017-06-26T03:40:11.124Z,8.83
2017-06-26T03:42:37.753Z,10.90
2017-06-26T03:45:04.401Z,8.67
2017-06-26T03:47:31.039Z,11.13
2017-06-26T03:49:57.663Z,7.67
2017-06-26T03:52:24.280Z,8.20
2017-06-26T03:54:51.227Z,7.70
2017-06-26T03:57:18.407Z,11.67
2017-06-26T03:59:45.041Z,13.80
2017-06-26T04:02:11.656Z,11.57
2017-06-26T04:04:38.299Z,9.37
2017-06-26T04:07:04.920Z,12.33
2017-06-26T04:09:31.590Z,10.30
2017-06-26T04:11:58.219Z,9.60
2017-06-26T04:14:24.859Z,10.30
2017-06-26T04:16:51.496Z,13.07
2017-06-26T04:19:18.126Z,7.23
2017-06-26T04:21:44.783Z,8.57
2017-06-26T04:24:11.431Z,9.70
2017-06-26T04:26:38.044Z,10.97
2017-06-26T04:29:04.700Z,11.53
2017-06-26T04:31:31.313Z,15.70
2017-06-26T04:33:57.961Z,12.57
2017-06-26T04:36:24.577Z,9.97
2017-06-26T04:38:51.196Z,14.87
2017-06-26T04:41:17.825Z,12.63
2017-06-26T04:43:44.462Z,10.10
2017-06-26T04:46:11.109Z,11.70
2017-06-26T04:48:37.751Z,12.63
2017-06-26T04:51:04.428Z,11.53
2017-06-26T04:53:31.048Z,12.13
2017-06-26T04:55:57.682Z,15.13
2017-06-26T04:58:24.338Z,16.20
2017-06-26T05:00:51.135Z,11.47
2017-06-26T05:03:17.771Z,12.73
2017-06-26T05:05:44.436Z,15.63
2017-06-26T05:08:11.063Z,12.10
2017-06-26T05:10:37.719Z,15.93
2017-06-26T05:13:04.342Z,12.57
2017-06-26T05:15:30.962Z,11.27
2017-06-26T05:17:57.598Z,13.90
2017-06-26T05:20:24.223Z,14.17
2017-06-26T05:22:50.872Z,11.40
2017-06-26T05:25:17.504Z,15.77
2017-06-26T05:27:44.159Z,18.60
2017-06-26T05:30:10.774Z,16.43
2017-06-26T05:32:37.411Z,16.17
2017-06-26T05:35:06.072Z,18.50
2017-06-26T05:37:32.694Z,18.43
2017-06-26T05:40:01.684Z,20.17
2017-06-26T05:42:30.702Z,21.33
2017-06-26T05:45:00.266Z,28.63
2017-06-26T05:47:29.188Z,15.93
2017-06-26T05:49:59.490Z,19.17
2017-06-26T05:52:29.536Z,17.97
2017-06-26T05:54:58.332Z,17.83
2017-06-26T05:57:24.981Z,19.43
2017-06-26T05:59:56.133Z,17.17
2017-06-26T06:02:23.570Z,14.33
2017-06-26T06:04:54.934Z,16.00
2017-06-26T06:07:23.424Z,13.80
2017-06-26T06:09:50.071Z,24.53
2017-06-26T06:12:20.283Z,16.00
2017-06-26T06:14:47.582Z,26.83
2017-06-26T06:17:15.835Z,19.67
2017-06-26T06:19:44.949Z,19.70
2017-06-26T06:22:14.147Z,16.37
2017-06-26T06:24:44.057Z,17.60
2017-06-26T06:27:12.240Z,21.53
2017-06-26T06:29:41.123Z,18.40
2017-06-26T06:32:09.166Z,17.43
2017-06-26T06:34:38.776Z,18.43
2017-06-26T06:37:06.711Z,25.90
2017-06-26T06:39:36.819Z,23.87
2017-06-26T06:42:04.587Z,21.00
2017-06-26T06:44:34.275Z,25.23
2017-06-26T06:47:00.941Z,32.10
2017-06-26T06:49:27.568Z,26.60
2017-06-26T06:51:54.238Z,24.60
2017-06-26T06:54:20.867Z,23.50
2017-06-26T06:56:47.496Z,33.23
2017-06-26T06:59:14.148Z,30.87
2017-06-26T07:01:40.792Z,32.00
2017-06-26T07:04:07.451Z,25.73
2017-06-26T07:06:34.091Z,29.70
2017-06-26T07:09:00.785Z,35.97
2017-06-26T07:11:27.423Z,31.33
2017-06-26T07:13:54.050Z,24.87
2017-06-26T07:16:20.722Z,27.50
2017-06-26T07:18:47.386Z,27.03
2017-06-26T07:21:14.030Z,26.87
2017-06-26T07:23:40.653Z,31.37
2017-06-26T07:26:07.303Z,23.73
2017-06-26T07:28:33.922Z,23.37
2017-06-26T07:31:00.566Z,18.50
2017-06-26T07:33:27.211Z,29.30
2017-06-26T07:35:53.851Z,21.07
2017-06-26T07:38:20.505Z,26.00
2017-06-26T07:40:47.131Z,21.07
2017-06-26T07:43:14.133Z,18.43
2017-06-26T07:45:40.774Z,20.90
2017-06-26T07:48:07.411Z,22.17
2017-06-26T07:50:34.043Z,33.43
2017-06-26T07:53:00.711Z,23.47
2017-06-26T07:55:27.352Z,16.97
2017-06-26T07:57:53.999Z,18.27
2017-06-26T08:00:20.616Z,24.13
2017-06-26T08:02:47.260Z,21.70
2017-06-26T08:05:13.919Z,26.53
2017-06-26T08:07:40.560Z,13.93
2017-06-26T08:10:07.206Z,22.73
2017-06-26T08:12:37.247Z,21.93
2017-06-26T08:15:03.868Z,42.40
2017-06-26T08:17:31.542Z,37.37
2017-06-26T08:19:58.167Z,46.70
2017-06-26T08:22:25.142Z,15.30
2017-06-26T08:24:51.766Z,16.80
2017-06-26T08:27:21.161Z,15.07
2017-06-26T08:29:49.027Z,6.97
2017-06-26T08:32:17.856Z,9.30
2017-06-26T08:34:47.610Z,14.47
2017-06-26T08:37:20.088Z,18.27
2017-06-26T08:39:48.770Z,7.20
2017-06-26T08:42:16.774Z,6.47
2017-06-26T08:44:48.146Z,5.00
2017-06-26T08:47:15.558Z,7.50
2017-06-26T08:49:47.355Z,5.80
2017-06-26T08:52:16.669Z,6.77
2017-06-26T08:54:44.108Z,11.23
2017-06-26T08:57:10.768Z,9.70
2017-06-26T08:59:39.990Z,6.20
2017-06-26T09:02:08.864Z,8.73
2017-06-26T09:04:37.019Z,7.37
2017-06-26T09:07:04.251Z,10.70
2017-06-26T09:09:30.899Z,7.00
2017-06-26T09:12:00.772Z,7.70
2017-06-26T09:14:28.792Z,10.60
2017-06-26T09:16:58.175Z,8.43
2017-06-26T09:19:27.872Z,7.00
2017-06-26T09:21:57.168Z,8.20
2017-06-26T09:24:27.525Z,4.77
2017-06-26T09:26:56.211Z,5.00
2017-06-26T09:29:24.890Z,4.43
2017-06-26T09:31:52.158Z,7.47
2017-06-26T09:34:20.573Z,16.67
2017-06-26T09:36:49.313Z,21.83
2017-06-26T09:39:17.268Z,6.47
2017-06-26T09:41:43.905Z,3.63
2017-06-26T09:44:10.556Z,4.07
2017-06-26T09:46:37.942Z,5.53
2017-06-26T09:49:07.447Z,3.63
2017-06-26T09:51:35.855Z,7.90
2017-06-26T09:54:05.519Z,5.73
2017-06-26T09:56:34.928Z,10.03
2017-06-26T09:59:03.507Z,8.90
2017-06-26T10:01:32.386Z,9.20
2017-06-26T10:04:00.936Z,5.63
2017-06-26T10:06:27.613Z,5.67
2017-06-26T10:08:57.132Z,8.33
2017-06-26T10:11:25.020Z,9.20
2017-06-26T10:13:53.267Z,9.23
2017-06-26T10:16:22.451Z,9.33
2017-06-26T10:18:49.065Z,5.43
2017-06-26T10:21:15.756Z,8.70
2017-06-26T10:23:43.307Z,5.60
2017-06-26T10:26:09.928Z,11.90
2017-06-26T10:28:37.325Z,8.77
2017-06-26T10:31:03.956Z,8.03
2017-06-26T10:33:30.617Z,4.67
2017-06-26T10:35:57.251Z,7.77
2017-06-26T10:38:23.881Z,5.90
2017-06-26T10:40:52.707Z,19.30
2017-06-26T10:43:21.190Z,11.33
2017-06-26T10:45:47.830Z,7.80
2017-06-26T10:48:15.424Z,8.53
2017-06-26T10:50:42.085Z,10.90
2017-06-26T10:53:10.776Z,17.50
2017-06-26T10:55:38.404Z,8.97
2017-06-26T10:58:05.027Z,5.80
2017-06-26T11:00:31.679Z,9.40
2017-06-26T11:02:58.290Z,10.00
2017-06-26T11:05:24.943Z,6.50
2017-06-26T11:07:54.151Z,12.13
2017-06-26T11:10:20.779Z,4.03
2017-06-26T11:12:47.414Z,3.90
2017-06-26T11:15:14.063Z,10.40
2017-06-26T11:17:40.686Z,8.57
2017-06-26T11:20:07.314Z,9.43
2017-06-26T11:22:35.040Z,11.03
2017-06-26T11:25:01.658Z,7.20
2017-06-26T11:27:28.341Z,6.87
2017-06-26T11:29:54.968Z,7.70
2017-06-26T11:32:21.614Z,5.67
2017-06-26T11:34:48.254Z,7.30
2017-06-26T11:37:14.860Z,5.03
2017-06-26T11:39:41.513Z,5.20
2017-06-26T11:42:08.156Z,6.23
2017-06-26T11:44:35.627Z,6.10
2017-06-26T11:47:02.253Z,7.43
2017-06-26T11:49:28.894Z,6.67
2017-06-26T11:51:55.524Z,9.80
2017-06-26T11:54:22.158Z,6.40
2017-06-26T11:56:48.808Z,5.03
2017-06-26T11:59:15.439Z,6.03
2017-06-26T12:01:42.120Z,2.50
2017-06-26T12:04:08.744Z,5.07
2017-06-26T12:06:35.622Z,4.70
2017-06-26T12:09:02.294Z,7.17
2017-06-26T12:11:29.178Z,10.57
2017-06-26T12:13:55.817Z,7.70
2017-06-26T12:16:22.459Z,12.60
2017-06-26T12:18:49.071Z,7.13
2017-06-26T12:21:15.703Z,5.50
2017-06-26T12:23:42.351Z,12.37
2017-06-26T12:26:08.974Z,15.93
2017-06-26T12:28:35.624Z,7.40
2017-06-26T12:31:03.433Z,10.20
2017-06-26T12:33:30.073Z,6.90
2017-06-26T12:36:00.564Z,7.60
2017-06-26T12:38:28.850Z,5.93
2017-06-26T12:40:57.319Z,3.90
2017-06-26T12:43:23.981Z,10.13
2017-06-26T12:45:50.617Z,5.70
2017-06-26T12:48:21.335Z,5.80
2017-06-26T12:50:50.257Z,20.47
2017-06-26T12:53:16.879Z,9.23
2017-06-26T12:55:47.288Z,10.97
2017-06-26T12:58:15.766Z,9.20
2017-06-26T13:00:42.399Z,12.63
2017-06-26T13:03:12.252Z,11.20
2017-06-26T13:05:38.908Z,11.70
2017-06-26T13:08:07.852Z,3.73
2017-06-26T13:10:38.359Z,5.17
2017-06-26T13:13:07.167Z,3.73
2017-06-26T13:15:36.665Z,7.53
2017-06-26T13:18:03.359Z,4.90
2017-06-26T13:20:29.982Z,5.00
2017-06-26T13:22:56.599Z,9.57
2017-06-26T13:25:23.277Z,4.80
2017-06-26T13:27:52.278Z,3.80
2017-06-26T13:30:20.998Z,5.13
2017-06-26T13:32:49.922Z,9.80
2017-06-26T13:35:18.509Z,9.47
2017-06-26T13:37:46.018Z,8.40
2017-06-26T13:40:12.628Z,7.60
2017-06-26T13:42:39.257Z,4.00
2017-06-26T13:45:05.875Z,7.83
2017-06-26T13:47:32.527Z,15.63
2017-06-26T13:49:59.183Z,8.77
2017-06-26T13:52:27.940Z,3.07
2017-06-26T13:54:55.826Z,6.47
2017-06-26T13:57:22.480Z,4.33
2017-06-26T13:59:52.246Z,6.17
2017-06-26T14:02:18.941Z,10.97
2017-06-26T14:04:49.069Z,9.67
2017-06-26T14:07:16.362Z,9.93
2017-06-26T14:09:46.847Z,5.87
2017-06-26T14:12:15.596Z,6.07
2017-06-26T14:14:45.062Z,7.10
2017-06-26T14:17:14.626Z,8.30
2017-06-26T14:19:43.860Z,3.40
2017-06-26T14:22:13.650Z,6.60
2017-06-26T14:24:42.992Z,4.80
2017-06-26T14:27:11.703Z,5.10
2017-06-26T14:29:40.508Z,7.00
2017-06-26T14:32:11.231Z,11.53
2017-06-26T14:34:39.135Z,9.87
2017-06-26T14:37:07.146Z,11.13
2017-06-26T14:39:35.635Z,13.10
2017-06-26T14:42:04.832Z,12.63
2017-06-26T14:44:33.824Z,15.10
2017-06-26T14:47:03.730Z,10.03
2017-06-26T14:49:31.608Z,7.97
2017-06-26T14:52:00.827Z,8.83
2017-06-26T14:54:29.623Z,4.67
2017-06-26T14:57:00.478Z,12.90
2017-06-26T14:59:27.115Z,6.13
2017-06-26T15:01:56.917Z,9.07
2017-06-26T15:04:25.987Z,13.60
2017-06-26T15:06:53.220Z,4.80
2017-06-26T15:09:21.938Z,8.77
2017-06-26T15:11:49.349Z,7.00
2017-06-26T15:14:18.147Z,2.97
2017-06-26T15:16:44.847Z,4.93
2017-06-26T15:19:15.371Z,4.10
2017-06-26T15:21:45.127Z,6.80
2017-06-26T15:24:14.106Z,6.43
2017-06-26T15:26:41.446Z,12.70
2017-06-26T15:29:08.891Z,6.80
2017-06-26T15:31:38.425Z,6.50
2017-06-26T15:34:07.016Z,9.30
2017-06-26T15:36:35.375Z,6.77
2017-06-26T15:39:03.773Z,12.53
2017-06-26T15:41:33.647Z,5.63
2017-06-26T15:44:02.582Z,5.83
2017-06-26T15:46:32.943Z,6.40
2017-06-26T15:49:01.843Z,9.07
2017-06-26T15:51:29.595Z,4.10
2017-06-26T15:53:56.949Z,7.57
2017-06-26T15:56:23.608Z,12.37
2017-06-26T15:58:50.256Z,7.40
2017-06-26T16:01:17.574Z,6.77
2017-06-26T16:03:44.274Z,4.40
2017-06-26T16:06:10.934Z,6.90
2017-06-26T16:08:37.625Z,6.60
2017-06-26T16:11:05.355Z,5.93
2017-06-26T16:13:34.230Z,11.90
2017-06-26T16:16:00.887Z,3.87
2017-06-26T16:18:27.500Z,5.70
2017-06-26T16:20:54.144Z,6.47
2017-06-26T16:23:20.787Z,9.80
2017-06-26T16:25:47.418Z,10.37
2017-06-26T16:28:14.070Z,6.93
2017-06-26T16:30:40.692Z,9.80
2017-06-26T16:33:07.325Z,13.00
2017-06-26T16:35:33.947Z,8.20
2017-06-26T16:38:00.587Z,10.57
2017-06-26T16:40:27.217Z,3.73
2017-06-26T16:42:53.838Z,9.70
2017-06-26T16:45:20.493Z,5.83
2017-06-26T16:47:47.140Z,2.73
2017-06-26T16:50:13.775Z,4.73
2017-06-26T16:52:40.423Z,8.43
2017-06-26T16:55:07.049Z,5.40
2017-06-26T16:57:33.674Z,6.70
2017-06-26T17:00:00.292Z,8.47
2017-06-26T17:02:26.929Z,6.03
2017-06-26T17:04:53.547Z,6.00
2017-06-26T17:07:20.154Z,4.27
2017-06-26T17:09:46.784Z,8.20
2017-06-26T17:12:13.409Z,9.17
2017-06-26T17:14:40.070Z,5.17
2017-06-26T17:17:06.704Z,5.73
2017-06-26T17:19:33.312Z,4.70
2017-06-26T17:21:59.976Z,8.47
2017-06-26T17:24:26.588Z,6.23
2017-06-26T17:26:53.239Z,5.43
2017-06-26T17:29:19.866Z,6.13
2017-06-26T17:31:46.512Z,7.83
2017-06-26T17:34:13.162Z,8.47
2017-06-26T17:36:39.779Z,4.90
2017-06-26T17:39:06.428Z,14.97
2017-06-26T17:41:33.051Z,4.53
2017-06-26T17:43:59.667Z,4.70
2017-06-26T17:46:26.314Z,2.67
2017-06-26T17:48:52.934Z,12.27
2017-06-26T17:51:19.590Z,9.07
2017-06-26T17:53:46.216Z,7.57
2017-06-26T17:56:12.835Z,9.13
2017-06-26T17:58:39.468Z,9.00
2017-06-26T18:01:06.394Z,7.97
2017-06-26T18:03:33.023Z,4.20
2017-06-26T18:05:59.684Z,8.00
2017-06-26T18:08:26.306Z,7.73
2017-06-26T18:10:52.954Z,4.73
2017-06-26T18:13:19.620Z,4.40
2017-06-26T18:15:46.235Z,5.13
2017-06-26T18:18:12.868Z,5.90
2017-06-26T18:20:39.527Z,4.53
2017-06-26T18:23:06.137Z,3.30
2017-06-26T18:25:32.787Z,10.10
2017-06-26T18:27:59.395Z,7.23
2017-06-26T18:30:26.023Z,3.10
2017-06-26T18:32:53.418Z,3.93
2017-06-26T18:35:20.058Z,6.00
2017-06-26T18:37:46.927Z,5.80
2017-06-26T18:40:13.580Z,8.00
2017-06-26T18:42:40.231Z,8.50
2017-06-26T18:45:06.865Z,3.97
2017-06-26T18:47:33.478Z,5.37
2017-06-26T18:50:00.117Z,8.50
2017-06-26T18:52:26.768Z,5.63
2017-06-26T18:54:53.409Z,6.60
2017-06-26T18:57:20.025Z,6.10
2017-06-26T18:59:46.649Z,5.13
2017-06-26T19:02:13.302Z,13.40
2017-06-26T19:04:45.449Z,6.37
2017-06-26T19:07:14.275Z,4.00
2017-06-26T19:09:43.785Z,4.47
2017-06-26T19:12:13.097Z,5.07
2017-06-26T19:14:42.417Z,3.43
2017-06-26T19:17:10.376Z,6.40
2017-06-26T19:19:39.286Z,7.13
2017-06-26T19:22:10.876Z,2.83
2017-06-26T19:24:38.807Z,6.17
2017-06-26T19:27:07.802Z,11.87
2017-06-26T19:29:35.782Z,6.00
2017-06-26T19:32:05.827Z,10.33
2017-06-26T19:34:34.610Z,10.57
2017-06-26T19:37:04.787Z,8.40
2017-06-26T19:39:33.263Z,5.10
2017-06-26T19:42:03.139Z,5.40
2017-06-26T19:44:33.724Z,4.77
2017-06-26T19:47:02.218Z,8.10
2017-06-26T19:49:31.798Z,5.00
2017-06-26T19:52:00.490Z,7.80
2017-06-26T19:54:28.371Z,5.97
2017-06-26T19:56:56.339Z,12.60
2017-06-26T19:59:25.120Z,5.90
2017-06-26T20:01:52.451Z,6.43
2017-06-26T20:04:21.119Z,4.50
2017-06-26T20:06:50.227Z,6.43
2017-06-26T20:09:19.142Z,5.50
2017-06-26T20:11:48.615Z,7.33
2017-06-26T20:14:15.860Z,4.73
2017-06-26T20:16:42.530Z,3.93
2017-06-26T20:19:09.162Z,4.43
2017-06-26T20:21:35.796Z,4.00
2017-06-26T20:24:02.445Z,5.00
2017-06-26T20:26:29.084Z,5.93
2017-06-26T20:28:55.855Z,4.67
2017-06-26T20:31:22.477Z,4.00
2017-06-26T20:33:49.105Z,5.50
2017-06-26T20:36:15.750Z,5.70
2017-06-26T20:38:42.386Z,4.70
2017-06-26T20:41:09.023Z,3.37
2017-06-26T20:43:35.660Z,3.30
2017-06-26T20:46:03.132Z,3.23
2017-06-26T20:48:29.771Z,5.90
2017-06-26T20:50:56.428Z,6.50
2017-06-26T20:53:23.072Z,9.40
2017-06-26T20:55:49.719Z,11.73
2017-06-26T20:58:16.328Z,12.27
2017-06-26T21:00:42.963Z,21.13
2017-06-26T21:03:09.590Z,9.57
2017-06-26T21:05:36.272Z,7.83
2017-06-26T21:08:02.889Z,6.93
2017-06-26T21:10:29.527Z,10.73
2017-06-26T21:12:56.196Z,7.07
2017-06-26T21:15:22.843Z,5.67
2017-06-26T21:17:49.472Z,6.80
2017-06-26T21:20:16.999Z,13.30
2017-06-26T21:22:43.629Z,3.70
2017-06-26T21:25:10.270Z,6.43
2017-06-26T21:27:36.887Z,3.57
2017-06-26T21:30:03.535Z,10.13
2017-06-26T21:32:30.191Z,6.53
2017-06-26T21:34:56.818Z,6.17
2017-06-26T21:37:23.432Z,5.63
2017-06-26T21:39:50.080Z,10.70
2017-06-26T21:42:16.718Z,5.97
2017-06-26T21:44:43.350Z,5.47
2017-06-26T21:47:09.969Z,2.53
2017-06-26T21:49:36.631Z,4.57
2017-06-26T21:52:03.283Z,4.27
2017-06-26T21:54:29.915Z,4.87
2017-06-26T21:56:56.539Z,5.50
2017-06-26T21:59:23.172Z,8.43
2017-06-26T22:01:49.789Z,9.50
2017-06-26T22:04:16.440Z,5.70
2017-06-26T22:06:43.057Z,5.23
2017-06-26T22:09:09.719Z,10.23
2017-06-26T22:11:36.342Z,2.73
2017-06-26T22:14:02.971Z,4.80
2017-06-26T22:16:29.612Z,5.40
2017-06-26T22:18:56.246Z,3.80
2017-06-26T22:21:22.895Z,5.30
2017-06-26T22:23:49.520Z,8.23
2017-06-26T22:26:16.144Z,5.87
2017-06-26T22:28:42.785Z,6.67
2017-06-26T22:31:10.259Z,5.40
2017-06-26T22:33:36.903Z,5.70
2017-06-26T22:36:03.551Z,8.53
2017-06-26T22:38:30.194Z,6.00
2017-06-26T22:40:56.847Z,5.33
2017-06-26T22:43:23.484Z,4.10
2017-06-26T22:45:50.123Z,4.83
2017-06-26T22:48:16.746Z,14.23
2017-06-26T22:50:43.392Z,7.03
2017-06-26T22:53:10.046Z,6.20
2017-06-26T22:55:36.690Z,4.67
2017-06-26T22:58:03.349Z,4.80
2017-06-26T23:00:29.976Z,3.77
2017-06-26T23:02:56.580Z,6.17
2017-06-26T23:05:23.203Z,8.27
2017-06-26T23:07:49.842Z,6.77
2017-06-26T23:10:18.591Z,9.93
2017-06-26T23:12:45.239Z,3.23
2017-06-26T23:15:11.904Z,6.40
2017-06-26T23:17:38.530Z,5.90
2017-06-26T23:20:05.160Z,9.97
2017-06-26T23:22:31.797Z,4.90
2017-06-26T23:24:58.415Z,5.20
2017-06-26T23:27:25.679Z,5.20
2017-06-26T23:29:52.311Z,10.40
2017-06-26T23:32:18.945Z,6.00
2017-06-26T23:34:45.581Z,6.70
2017-06-26T23:37:12.217Z,6.30
2017-06-26T23:39:38.888Z,5.20
2017-06-26T23:42:06.131Z,4.40
2017-06-26T23:44:32.802Z,6.53
2017-06-26T23:46:59.429Z,4.73
2017-06-26T23:49:26.035Z,4.60
2017-06-26T23:51:52.671Z,4.10
2017-06-26T23:54:19.307Z,9.03
2017-06-26T23:56:45.934Z,7.93
2017-06-26T23:59:12.582Z,7.47
